Time;durP1;ratioP1;P1;durP2;ratioP2;P2;SDS_P1;SDS_P2;PMS_P1;PMS_P2;Temp;Humidity;BMP_temperature;BMP_pressure;BME280_temperature;BME280_humidity;BME280_pressure;Samples;Min_cycle;Max_cycle;Signal;HPM_P1;HPM_P2
2021/12/13 00:01:05;;;;;;;16.92;8.52;;;;;;;6.47;56.58;101532.75;5074006;28;20068;-63
2021/12/13 00:04:04;;;;;;;14.02;8.10;;;;;;;6.54;58.56;101531.41;5074161;28;20055;-62
2021/12/13 00:06:54;;;;;;;18.42;10.38;;;;;;;6.81;56.78;101533.84;5074130;28;20047;-63
2021/12/13 00:09:41;;;;;;;16.20;9.55;;;;;;;6.86;56.55;101531.97;5074369;28;20044;-63
2021/12/13 00:12:35;;;;;;;16.83;8.65;;;;;;;6.81;56.73;101533.84;5104718;23;20051;-77
2021/12/13 00:15:32;;;;;;;14.40;8.93;;;;;;;7.06;55.50;101524.94;5072994;28;20058;-76
2021/12/13 00:18:33;;;;;;;17.70;10.98;;;;;;;6.75;56.46;101527.66;5082091;28;20047;-76
2021/12/13 00:21:27;;;;;;;16.50;9.15;;;;;;;6.71;57.40;101534.66;5075544;28;20056;-77
2021/12/13 00:24:20;;;;;;;13.48;8.68;;;;;;;6.94;57.91;101529.81;5053497;28;20550;-76
2021/12/13 00:27:16;;;;;;;13.70;8.63;;;;;;;6.88;56.43;101518.19;5079045;28;20503;-76
2021/12/13 00:30:11;;;;;;;17.23;8.10;;;;;;;7.09;56.72;101516.28;5050037;28;20047;-77
2021/12/13 00:33:14;;;;;;;11.82;7.45;;;;;;;7.17;57.70;101531.94;5060713;28;20059;-76
2021/12/13 00:36:02;;;;;;;18.42;9.18;;;;;;;7.19;56.26;101527.91;5064897;28;20044;-77
2021/12/13 00:38:59;;;;;;;16.38;9.32;;;;;;;7.12;55.62;101535.47;5071003;28;20055;-76
2021/12/13 00:41:47;;;;;;;17.25;9.20;;;;;;;7.13;56.32;101536.28;5069094;28;20055;-78
2021/12/13 00:44:39;;;;;;;16.92;9.65;;;;;;;6.83;57.80;101537.94;5065645;28;20059;-77
2021/12/13 00:47:33;;;;;;;18.20;8.77;;;;;;;7.08;58.85;101539.00;5084051;28;20041;-76
2021/12/13 00:50:24;;;;;;;17.52;9.32;;;;;;;7.17;58.23;101532.75;5067511;28;20051;-76
2021/12/13 00:53:09;;;;;;;15.85;8.95;;;;;;;6.95;58.16;101536.84;5063308;28;20043;-77
2021/12/13 00:55:54;;;;;;;15.82;9.80;;;;;;;6.70;58.88;101527.66;5040921;28;20060;-76
2021/12/13 00:58:39;;;;;;;12.30;7.63;;;;;;;6.67;59.99;101527.38;5054852;28;20047;-76
2021/12/13 01:01:25;;;;;;;14.52;8.98;;;;;;;6.51;59.39;101523.03;5048129;28;20056;-75
2021/12/13 01:04:14;;;;;;;16.17;10.13;;;;;;;6.60;59.04;101532.25;5059761;28;20441;-75
2021/12/13 01:07:34;;;;;;;15.65;9.75;;;;;;;6.77;58.17;101528.19;5065746;28;20056;-75
2021/12/13 01:10:43;;;;;;;14.10;9.50;;;;;;;6.52;58.75;101530.88;5074306;28;20039;-76
2021/12/13 01:13:47;;;;;;;16.77;9.27;;;;;;;6.55;59.16;101521.44;5052024;28;20541;-79
2021/12/13 01:17:14;;;;;;;17.63;9.45;;;;;;;6.48;60.24;101518.97;5066739;28;20530;-80
2021/12/13 01:20:17;;;;;;;15.18;9.43;;;;;;;6.57;59.83;101514.66;5036562;28;20408;-81
2021/12/13 01:23:15;;;;;;;20.92;9.77;;;;;;;6.30;60.10;101512.19;5082613;28;20043;-81
2021/12/13 01:26:14;;;;;;;17.30;9.52;;;;;;;6.32;60.23;101514.63;5069077;28;20051;-80
2021/12/13 01:29:08;;;;;;;20.75;10.23;;;;;;;6.37;60.79;101520.03;5068823;28;20044;-79
2021/12/13 01:32:07;;;;;;;20.95;11.23;;;;;;;6.17;60.61;101511.88;5071405;28;20047;-80
2021/12/13 01:34:52;;;;;;;13.23;8.70;;;;;;;6.15;60.46;101506.75;5044461;28;20408;-80
2021/12/13 01:37:37;;;;;;;20.10;10.93;;;;;;;6.15;61.40;101511.31;5056730;28;20043;-80
2021/12/13 01:40:28;;;;;;;12.75;7.70;;;;;;;6.24;61.28;101513.25;5078597;28;20084;-80
2021/12/13 01:43:25;;;;;;;19.27;10.30;;;;;;;6.05;61.41;101511.28;5042846;28;20052;-79
2021/12/13 01:46:10;;;;;;;15.70;10.55;;;;;;;6.03;61.65;101513.47;5062560;28;20041;-78
2021/12/13 01:48:57;;;;;;;23.17;10.15;;;;;;;5.92;61.78;101508.03;5078191;28;20515;-78
2021/12/13 01:51:42;;;;;;;16.80;9.82;;;;;;;6.31;60.49;101513.81;5070358;28;20032;-78
2021/12/13 01:54:27;;;;;;;;;;;;;;;6.43;59.77;101516.25;5059212;28;20055;-79
2021/12/13 02:00:08;;;;;;;16.85;10.85;;;;;;;6.34;62.24;101516.00;5078889;28;20043;-80
2021/12/13 02:02:57;;;;;;;14.95;9.38;;;;;;;6.24;62.16;101520.56;5038995;28;20055;-80
2021/12/13 02:05:46;;;;;;;;;;;;;;;6.05;62.02;101524.78;5075372;28;20051;-78
2021/12/13 02:08:33;;;;;;;13.95;9.13;;;;;;;6.20;60.26;101522.94;5065401;28;20106;-79
2021/12/13 02:11:20;;;;;;;15.50;9.88;;;;;;;6.32;59.76;101525.41;5068643;28;20415;-78
2021/12/13 02:14:13;;;;;;;16.10;9.25;;;;;;;6.39;58.89;101534.09;5056812;28;20052;-78
2021/12/13 02:17:10;;;;;;;13.27;8.77;;;;;;;6.32;58.68;101542.44;5070177;28;20051;-77
2021/12/13 02:20:06;;;;;;;15.90;10.13;;;;;;;6.53;57.49;101535.19;5073457;28;20526;-79
2021/12/13 02:22:53;;;;;;;15.27;10.20;;;;;;;6.55;57.14;101534.94;5049336;28;20455;-81
2021/12/13 02:25:47;;;;;;;69.57;15.50;;;;;;;6.47;59.56;101525.44;5054296;28;20037;-81
2021/12/13 02:28:36;;;;;;;36.63;12.43;;;;;;;6.28;60.94;101519.75;5048589;28;20040;-79
2021/12/13 02:31:29;;;;;;;22.80;10.98;;;;;;;6.33;59.52;101522.47;5070259;28;20043;-80
2021/12/13 02:34:17;;;;;;;14.48;9.43;;;;;;;6.47;57.58;101511.94;5065474;28;20087;-79
2021/12/13 02:37:03;;;;;;;22.25;10.90;;;;;;;6.34;58.35;101512.47;5057665;28;20524;-80
2021/12/13 02:39:50;;;;;;;21.33;10.77;;;;;;;6.44;59.48;101520.59;5059146;28;20049;-79
2021/12/13 02:42:35;;;;;;;20.63;10.95;;;;;;;6.06;60.18;101521.03;5042711;28;20043;-78
2021/12/13 02:45:32;;;;;;;19.20;10.65;;;;;;;5.87;61.13;101529.59;5081684;28;20043;-79
2021/12/13 02:48:30;;;;;;;19.02;9.57;;;;;;;6.09;61.85;101528.63;5058777;28;20499;-78
2021/12/13 02:51:25;;;;;;;24.55;10.88;;;;;;;6.11;61.48;101537.25;5061860;28;20047;-80
2021/12/13 02:54:16;;;;;;;13.60;8.88;;;;;;;6.16;61.14;101540.78;5060313;28;20040;-80
2021/12/13 02:57:06;;;;;;;18.17;10.68;;;;;;;6.27;59.53;101549.72;5056181;28;20040;-79
2021/12/13 02:59:59;;;;;;;27.05;11.32;;;;;;;6.15;62.54;101557.22;5059292;28;20045;-77
2021/12/13 03:02:49;;;;;;;25.60;10.27;;;;;;;5.97;59.56;101545.84;5054173;28;20504;-79
2021/12/13 03:05:38;;;;;;;21.55;10.23;;;;;;;6.08;58.81;101551.28;5057547;28;20036;-79
2021/12/13 03:08:49;;;;;;;19.95;11.48;;;;;;;6.12;58.33;101552.38;5047744;28;20045;-80
2021/12/13 03:11:34;;;;;;;19.98;11.05;;;;;;;6.03;58.18;101557.47;5038362;28;20037;-78
2021/12/13 03:14:36;;;;;;;19.30;11.57;;;;;;;6.13;58.62;101549.41;5075684;28;20036;-79
2021/12/13 03:17:23;;;;;;;20.42;12.05;;;;;;;5.98;58.69;101552.88;5062139;28;20044;-78
2021/12/13 03:20:33;;;;;;;19.95;11.65;;;;;;;5.95;59.45;101558.78;5059645;28;20047;-78
2021/12/13 03:24:18;;;;;;;18.20;11.05;;;;;;;5.98;59.44;101560.97;5078840;28;20075;-79
2021/12/13 03:27:37;;;;;;;18.63;10.10;;;;;;;5.97;60.16;101561.22;5042937;28;20036;-79
2021/12/13 03:30:24;;;;;;;15.77;9.95;;;;;;;5.88;59.02;101557.41;5049972;28;20037;-79
2021/12/13 03:33:13;;;;;;;20.23;11.40;;;;;;;5.90;60.15;101557.94;5078497;28;20415;-80
2021/12/13 03:36:01;;;;;;;22.13;10.25;;;;;;;5.88;60.16;101552.00;5097091;28;20047;-79
2021/12/13 03:38:50;;;;;;;18.60;10.63;;;;;;;5.91;60.57;101552.28;5047761;28;20051;-79
2021/12/13 03:41:40;;;;;;;21.83;11.45;;;;;;;5.88;60.28;101552.84;5048231;28;20045;-80
2021/12/13 03:44:31;;;;;;;20.83;11.57;;;;;;;5.79;59.78;101548.94;5059472;28;20056;-78
2021/12/13 03:47:20;;;;;;;18.60;11.18;;;;;;;5.85;60.12;101563.28;5047056;28;20033;-81
2021/12/13 03:50:11;;;;;;;18.65;11.35;;;;;;;5.89;59.13;101559.81;5064795;28;20048;-80
2021/12/13 03:52:59;;;;;;;23.13;11.63;;;;;;;5.75;60.61;101558.66;5029757;28;20411;-80
2021/12/13 03:55:48;;;;;;;20.85;11.30;;;;;;;5.62;60.86;101569.94;5074924;28;20413;-81
2021/12/13 03:58:37;;;;;;;20.65;11.57;;;;;;;5.81;60.30;101565.72;5083129;28;20063;-82
2021/12/13 04:01:34;;;;;;;22.08;12.00;;;;;;;5.69;59.53;101567.78;5050595;28;20045;-80
2021/12/13 04:04:28;;;;;;;19.33;11.63;;;;;;;5.67;60.38;101572.66;5042724;28;20048;-81
2021/12/13 04:07:21;;;;;;;20.58;12.90;;;;;;;5.72;59.92;101564.59;5087731;28;20043;-81
2021/12/13 04:10:19;;;;;;;20.40;12.20;;;;;;;5.65;60.85;101563.19;5066263;28;20045;-80
2021/12/13 04:13:12;;;;;;;24.77;11.27;;;;;;;5.72;61.89;101569.97;5065793;28;20052;-81
2021/12/13 04:16:08;;;;;;;24.23;11.13;;;;;;;5.66;60.49;101572.91;5057390;28;20040;-80
2021/12/13 04:21:46;;;;;;;30.50;12.00;;;;;;;5.72;60.69;101556.50;5064071;28;20299;-79
2021/12/13 04:24:42;;;;;;;21.42;11.10;;;;;;;5.74;59.96;101559.72;5028734;28;20049;-79
2021/12/13 04:27:31;;;;;;;20.40;11.02;;;;;;;5.78;60.52;101562.72;5044394;28;20037;-79
2021/12/13 04:30:23;;;;;;;19.77;10.63;;;;;;;5.45;59.88;101569.28;5067337;28;20040;-79
2021/12/13 04:33:13;;;;;;;20.70;11.15;;;;;;;5.48;59.45;101557.97;5054827;28;20040;-81
2021/12/13 04:36:23;;;;;;;27.48;10.98;;;;;;;5.28;59.62;101557.84;5059188;28;20044;-81
2021/12/13 04:39:18;;;;;;;18.42;11.18;;;;;;;5.32;60.17;101554.38;5024818;28;20525;-80
2021/12/13 04:42:08;;;;;;;27.38;9.57;;;;;;;5.18;60.21;101563.16;5039472;28;20041;-78
2021/12/13 04:45:03;;;;;;;24.13;10.98;;;;;;;5.08;61.08;101562.00;5048637;28;20059;-79
2021/12/13 04:47:55;;;;;;;14.40;7.65;;;;;;;5.09;62.05;101573.59;5059134;28;20033;-79
2021/12/13 04:51:09;;;;;;;16.60;9.60;;;;;;;5.11;60.40;101585.75;5053251;28;20511;-79
2021/12/13 04:53:59;;;;;;;18.75;10.30;;;;;;;5.16;62.54;101588.50;5054837;28;20057;-79
2021/12/13 04:56:44;;;;;;;18.20;10.15;;;;;;;5.02;61.02;101589.19;5058723;28;20037;-78
2021/12/13 04:59:30;;;;;;;20.52;9.55;;;;;;;5.02;61.87;101589.19;5047544;28;20515;-78
2021/12/13 05:02:15;;;;;;;17.58;9.57;;;;;;;5.14;61.95;101579.03;5039911;28;20424;-79
2021/12/13 05:05:04;;;;;;;16.80;10.32;;;;;;;5.13;62.31;101583.59;5050368;28;20068;-80
2021/12/13 05:07:51;;;;;;;24.30;9.45;;;;;;;5.19;60.42;101576.38;5038067;28;20037;-81
2021/12/13 05:10:37;;;;;;;14.55;8.80;;;;;;;5.16;60.85;101583.09;5031212;28;20420;-81
2021/12/13 05:13:25;;;;;;;15.93;9.32;;;;;;;5.24;60.86;101583.69;5054602;28;20043;-79
2021/12/13 05:16:12;;;;;;;17.65;9.27;;;;;;;5.33;60.69;101574.06;5039072;28;20069;-80
2021/12/13 05:18:58;;;;;;;15.70;9.32;;;;;;;5.44;61.08;101571.16;5039881;28;20043;-79
2021/12/13 05:21:47;;;;;;;17.13;10.10;;;;;;;5.46;60.51;101566.31;5033188;28;20056;-79
2021/12/13 05:24:40;;;;;;;17.33;10.32;;;;;;;5.37;60.28;101561.69;5031830;28;20039;-81
2021/12/13 05:27:37;;;;;;;16.73;9.75;;;;;;;5.38;60.33;101566.00;5054488;28;20048;-80
2021/12/13 05:30:23;;;;;;;20.52;10.38;;;;;;;5.13;61.33;101564.72;5057686;28;20036;-80
2021/12/13 05:33:12;;;;;;;20.92;12.32;;;;;;;5.28;61.84;101563.25;5053551;28;20051;-80
2021/12/13 05:36:01;;;;;;;23.98;12.05;;;;;;;5.29;60.99;101562.97;5053736;28;20051;-79
2021/12/13 05:38:50;;;;;;;16.38;10.25;;;;;;;5.37;62.52;101572.47;5033421;28;20041;-81
2021/12/13 05:41:36;;;;;;;19.88;10.02;;;;;;;5.31;61.07;101566.22;5054965;28;20044;-80
2021/12/13 05:44:28;;;;;;;18.38;9.80;;;;;;;5.38;61.25;101571.41;5041295;28;20045;-80
2021/12/13 05:47:23;;;;;;;15.43;9.50;;;;;;;5.13;62.75;101572.00;5037484;28;20052;-78
2021/12/13 05:50:09;;;;;;;17.25;9.77;;;;;;;5.06;63.55;101576.81;5051770;28;20074;-78
2021/12/13 05:53:03;;;;;;;18.70;10.52;;;;;;;5.14;63.23;101579.03;5068760;28;20052;-82
2021/12/13 05:55:59;;;;;;;17.00;9.38;;;;;;;5.22;61.18;101572.34;5047488;28;20051;-79
2021/12/13 05:58:49;;;;;;;17.23;9.43;;;;;;;5.22;62.36;101575.88;5029995;28;20408;-81
2021/12/13 06:01:53;;;;;;;17.95;9.98;;;;;;;5.34;61.21;101578.34;5048982;28;20051;-79
2021/12/13 06:05:05;;;;;;;21.48;10.50;;;;;;;5.43;60.83;101576.81;5053659;28;20523;-78
2021/12/13 06:07:56;;;;;;;18.67;10.57;;;;;;;5.37;61.07;101577.84;5054096;28;20036;-78
2021/12/13 06:10:57;;;;;;;16.05;10.40;;;;;;;5.53;60.08;101582.28;5058075;28;20036;-79
2021/12/13 06:13:42;;;;;;;21.10;11.18;;;;;;;5.48;61.13;101574.16;5075426;22;20046;-76
2021/12/13 06:16:26;;;;;;;15.48;7.78;;;;;;;5.59;61.64;101582.03;5029012;28;20045;-77
2021/12/13 06:19:30;;;;;;;27.13;11.13;;;;;;;5.61;60.22;101584.47;5044105;28;20107;-77
2021/12/13 06:22:21;;;;;;;27.98;10.95;;;;;;;5.63;61.16;101586.94;5024665;28;20040;-78
2021/12/13 06:25:24;;;;;;;22.05;10.23;;;;;;;5.71;59.66;101578.34;5068591;28;20412;-78
2021/12/13 06:28:19;;;;;;;23.50;10.90;;;;;;;5.69;59.41;101583.97;5057215;28;20036;-77
2021/12/13 06:31:17;;;;;;;14.25;8.43;;;;;;;5.79;59.32;101581.34;5055030;28;20048;-77
2021/12/13 06:34:07;;;;;;;23.60;9.73;;;;;;;5.77;59.49;101577.28;5050187;28;20559;-77
2021/12/13 06:36:52;;;;;;;21.08;10.48;;;;;;;5.78;59.37;101576.22;5058558;28;20060;-77
2021/12/13 06:39:37;;;;;;;;;;;;;;;5.74;59.40;101578.63;5058613;28;20040;-77
2021/12/13 06:42:25;;;;;;;29.77;9.80;;;;;;;5.78;59.41;101584.31;5057586;28;19912;-77
2021/12/13 06:45:47;;;;;;;24.40;10.43;;;;;;;5.82;59.86;101572.72;5055766;28;20063;-77
2021/12/13 06:48:59;;;;;;;26.85;13.02;;;;;;;5.77;59.81;101582.69;5050910;28;20052;-77
2021/12/13 06:51:55;;;;;;;26.70;10.98;;;;;;;5.88;59.95;101582.53;5041659;28;20041;-77
2021/12/13 06:54:56;;;;;;;25.23;10.30;;;;;;;5.80;60.08;101580.28;5055669;28;20053;-77
2021/12/13 06:57:46;;;;;;;24.25;11.05;;;;;;;5.74;60.59;101583.22;5038115;28;20032;-77
2021/12/13 07:00:34;;;;;;;29.17;10.93;;;;;;;5.70;59.46;101587.50;5058929;28;20063;-76
2021/12/13 07:03:24;;;;;;;25.98;10.10;;;;;;;5.60;61.28;101596.34;5051639;28;20424;-75
2021/12/13 07:06:08;;;;;;;23.42;10.77;;;;;;;5.69;60.58;101585.91;5059478;28;20831;-75
2021/12/13 07:09:11;;;;;;;22.40;11.98;;;;;;;5.75;59.60;101591.03;5053874;28;20056;-77
2021/12/13 07:11:59;;;;;;;26.65;13.10;;;;;;;5.81;59.82;101592.69;5052033;28;20040;-77
2021/12/13 07:14:44;;;;;;;22.95;11.40;;;;;;;5.90;59.29;101598.44;5046050;28;20040;-77
2021/12/13 07:17:34;;;;;;;24.23;11.40;;;;;;;5.90;59.62;101598.44;5054861;28;20044;-77
2021/12/13 07:20:18;;;;;;;24.60;12.55;;;;;;;5.94;59.06;101602.25;5054121;28;20048;-77
2021/12/13 07:23:03;;;;;;;20.83;8.60;;;;;;;6.00;58.99;101599.28;5060496;28;20044;-77
2021/12/13 07:25:51;;;;;;;23.67;10.02;;;;;;;6.09;58.33;101604.22;5060033;28;20052;-77
2021/12/13 07:28:37;;;;;;;18.42;11.65;;;;;;;5.92;59.22;101602.50;5051624;28;20044;-78
2021/12/13 07:31:22;;;;;;;28.35;11.32;;;;;;;6.05;58.25;101595.00;5052490;28;20519;-78
2021/12/13 07:34:16;;;;;;;27.15;11.45;;;;;;;5.86;59.08;101614.31;5054357;28;20048;-78
2021/12/13 07:37:02;;;;;;;27.92;12.35;;;;;;;5.81;60.72;101625.06;5054401;28;20036;-78
2021/12/13 07:39:47;;;;;;;27.60;14.82;;;;;;;5.72;59.66;101618.56;5076862;28;20044;-78
2021/12/13 07:42:32;;;;;;;22.15;11.88;;;;;;;5.59;60.17;101613.59;5074987;28;20047;-78
2021/12/13 07:45:43;;;;;;;18.50;9.98;;;;;;;5.43;61.06;101617.28;5057681;28;20051;-78
2021/12/13 07:48:33;;;;;;;38.28;15.65;;;;;;;5.72;60.70;101618.56;5063545;28;20047;-78
2021/12/13 07:51:33;;;;;;;46.45;16.42;;;;;;;5.71;60.16;101616.94;5056103;28;20036;-78
2021/12/13 07:54:19;;;;;;;24.88;15.27;;;;;;;5.58;60.72;101625.47;5058621;28;20035;-78
2021/12/13 07:57:19;;;;;;;37.25;13.23;;;;;;;5.66;60.70;101630.38;5064564;28;20053;-78
2021/12/13 08:00:25;;;;;;;33.33;15.32;;;;;;;5.95;60.68;101628.16;5059416;28;20417;-77
2021/12/13 08:03:15;;;;;;;29.48;13.98;;;;;;;5.99;61.21;101640.84;5057317;28;20041;-78
2021/12/13 08:06:06;;;;;;;50.20;17.98;;;;;;;5.90;61.46;101641.63;5071349;28;20047;-78
2021/12/13 08:08:59;;;;;;;177.27;73.75;;;;;;;5.89;61.82;101635.41;5060862;28;20033;-78
2021/12/13 08:11:51;;;;;;;119.18;53.20;;;;;;;5.98;62.04;101633.03;5062454;28;20040;-76
2021/12/13 08:14:39;;;;;;;55.15;20.80;;;;;;;5.95;61.96;101630.84;5059236;28;20040;-77
2021/12/13 08:17:31;;;;;;;37.58;16.75;;;;;;;5.94;61.53;101632.72;5070659;28;20036;-78
2021/12/13 08:20:30;;;;;;;50.13;15.52;;;;;;;6.07;61.90;101630.66;5043597;28;20041;-78
2021/12/13 08:23:20;;;;;;;38.97;16.40;;;;;;;5.98;63.14;101628.47;5048945;28;20029;-78
2021/12/13 08:26:10;;;;;;;46.53;16.67;;;;;;;6.06;62.96;101637.13;5062136;28;20040;-78
2021/12/13 08:28:58;;;;;;;31.15;12.73;;;;;;;6.20;61.11;101635.56;5051902;28;20044;-78
2021/12/13 08:31:46;;;;;;;38.53;17.00;;;;;;;5.80;62.06;101638.81;5032060;28;20048;-78
2021/12/13 08:34:34;;;;;;;52.63;15.95;;;;;;;6.23;61.91;101645.84;5029935;28;20041;-78
2021/12/13 08:37:52;;;;;;;50.47;15.68;;;;;;;6.43;61.10;101645.94;5036611;28;20044;-78
2021/12/13 08:40:37;;;;;;;28.02;14.63;;;;;;;6.75;61.23;101646.59;5066922;28;20046;-78
2021/12/13 08:43:42;;;;;;;36.22;11.32;;;;;;;6.72;60.21;101654.41;5052599;28;20043;-79
2021/12/13 08:46:55;;;;;;;36.33;13.77;;;;;;;6.15;63.06;101663.34;5072691;28;20024;-79
2021/12/13 08:49:46;;;;;;;29.55;14.73;;;;;;;6.70;62.49;101662.78;5064629;28;20040;-79
2021/12/13 08:52:36;;;;;;;41.05;19.58;;;;;;;6.89;61.71;101676.63;5057300;28;20041;-78
2021/12/13 08:55:29;;;;;;;36.63;20.33;;;;;;;6.97;61.26;101691.50;5031409;28;20041;-79
2021/12/13 08:58:17;;;;;;;35.75;17.80;;;;;;;7.00;60.58;101677.44;5055167;28;20037;-79
2021/12/13 09:01:03;;;;;;;31.48;16.63;;;;;;;6.89;61.46;101684.72;5064376;28;20054;-79
2021/12/13 09:03:52;;;;;;;28.98;16.40;;;;;;;7.26;59.61;101671.78;5061741;28;20047;-79
2021/12/13 09:06:37;;;;;;;28.50;15.30;;;;;;;7.32;58.89;101678.84;5048674;28;20036;-79
2021/12/13 09:09:22;;;;;;;26.08;12.82;;;;;;;6.97;60.45;101684.19;5071534;28;20424;-78
2021/12/13 09:12:10;;;;;;;42.28;15.25;;;;;;;7.12;59.71;101686.13;5059608;28;20055;-79
2021/12/13 09:14:56;;;;;;;32.38;14.77;;;;;;;6.86;61.23;101688.75;5043354;28;20036;-79
2021/12/13 09:17:41;;;;;;;35.83;14.27;;;;;;;6.82;60.94;101684.97;5076265;28;20047;-79
2021/12/13 09:20:44;;;;;;;27.10;11.52;;;;;;;6.72;62.55;101674.13;5055793;28;20417;-79
2021/12/13 09:23:36;;;;;;;42.63;16.05;;;;;;;6.98;62.35;101677.72;5066622;28;20492;-79
2021/12/13 09:26:25;;;;;;;22.35;14.57;;;;;;;6.90;61.26;101670.13;5051536;28;20036;-79
2021/12/13 09:29:09;;;;;;;27.05;14.27;;;;;;;7.01;61.39;101674.47;5065239;28;20048;-79
2021/12/13 09:31:54;;;;;;;19.05;12.05;;;;;;;7.31;62.38;101669.09;5061716;28;20043;-78
2021/12/13 09:34:39;;;;;;;27.45;12.15;;;;;;;7.59;61.35;101669.63;5072875;28;20044;-80
2021/12/13 09:37:33;;;;;;;26.88;12.38;;;;;;;7.95;59.86;101678.53;5056851;28;20047;-79
2021/12/13 09:40:25;;;;;;;27.15;15.18;;;;;;;8.04;59.20;101674.16;5072080;28;20040;-80
2021/12/13 09:43:10;;;;;;;31.95;15.95;;;;;;;8.05;58.81;101673.09;5059869;28;20036;-80
2021/12/13 09:45:58;;;;;;;23.40;11.98;;;;;;;8.07;59.26;101676.34;5055298;28;20103;-80
2021/12/13 09:48:52;;;;;;;21.65;13.90;;;;;;;7.38;62.36;101679.66;5072655;28;20039;-79
2021/12/13 09:51:44;;;;;;;25.88;14.90;;;;;;;7.34;62.47;101678.56;5083904;28;20042;-78
2021/12/13 09:54:37;;;;;;;26.00;14.68;;;;;;;7.22;62.02;101680.72;5027210;28;20048;-79
2021/12/13 09:57:49;;;;;;;29.80;15.55;;;;;;;7.58;58.59;101685.06;5031241;28;20063;-79
2021/12/13 10:00:49;;;;;;;25.67;14.90;;;;;;;8.43;55.24;101688.72;5041633;28;20407;-79
2021/12/13 10:03:51;;;;;;;28.88;15.60;;;;;;;8.78;55.62;101678.81;5041925;28;20040;-79
2021/12/13 10:06:43;;;;;;;30.50;15.93;;;;;;;8.85;54.76;101682.00;5038458;28;20032;-79
2021/12/13 10:09:30;;;;;;;31.63;15.40;;;;;;;8.77;54.48;101682.59;5052298;28;20044;-79
2021/12/13 10:12:25;;;;;;;29.25;14.65;;;;;;;9.19;52.25;101682.91;5038735;28;20055;-79
2021/12/13 10:15:26;;;;;;;25.38;14.80;;;;;;;9.43;51.38;101678.38;5052723;28;20059;-79
2021/12/13 10:18:26;;;;;;;27.98;15.00;;;;;;;9.08;51.83;101670.50;5047733;28;20036;-79
2021/12/13 10:21:25;;;;;;;28.08;16.35;;;;;;;9.00;53.36;101668.34;5054843;28;20428;-79
2021/12/13 10:24:20;;;;;;;29.05;15.48;;;;;;;9.06;52.16;101672.66;5059544;28;20428;-79
2021/12/13 10:27:08;;;;;;;28.52;15.93;;;;;;;9.02;53.50;101666.19;5043404;28;20048;-79
2021/12/13 10:29:57;;;;;;;29.55;15.77;;;;;;;8.99;53.58;101672.16;5041159;28;20041;-79
2021/12/13 10:32:42;;;;;;;27.85;15.68;;;;;;;9.00;53.87;101657.50;5044752;28;20317;-79
2021/12/13 10:35:31;;;;;;;35.42;17.40;;;;;;;9.27;53.26;101657.88;5034966;28;20051;-79
2021/12/13 10:38:22;;;;;;;33.38;17.42;;;;;;;9.65;52.54;101658.09;5073779;28;20036;-77
2021/12/13 10:41:12;;;;;;;22.60;15.23;;;;;;;9.49;51.57;101652.00;5068696;28;20047;-78
2021/12/13 10:44:01;;;;;;;32.28;16.70;;;;;;;9.47;52.12;101646.03;5071502;28;20065;-78
2021/12/13 10:46:48;;;;;;;27.20;17.23;;;;;;;9.62;52.69;101648.59;5058579;28;20040;-78
2021/12/13 10:49:36;;;;;;;25.67;14.77;;;;;;;10.00;51.99;101649.59;5036689;28;20037;-79
2021/12/13 10:52:30;;;;;;;31.67;16.90;;;;;;;9.73;52.27;101646.63;5055441;28;20037;-78
2021/12/13 10:55:21;;;;;;;39.85;17.83;;;;;;;9.61;51.59;101652.41;5039751;28;20054;-79
2021/12/13 10:58:07;;;;;;;30.67;16.33;;;;;;;9.70;51.40;101655.34;5053426;28;20048;-79
2021/12/13 11:00:57;;;;;;;36.92;17.85;;;;;;;9.97;51.65;101652.88;5050942;28;20420;-79
2021/12/13 11:03:42;;;;;;;29.23;17.88;;;;;;;10.04;50.78;101650.63;5042436;28;20531;-78
2021/12/13 11:06:27;;;;;;;26.85;13.23;;;;;;;9.75;50.92;101644.44;5060113;28;20508;-77
2021/12/13 11:09:19;;;;;;;22.75;12.77;;;;;;;10.26;50.22;101653.66;5041698;28;20029;-78
2021/12/13 11:12:08;;;;;;;35.28;17.17;;;;;;;10.86;48.71;101658.63;5070243;28;20036;-79
2021/12/13 11:14:59;;;;;;;25.50;17.13;;;;;;;10.84;48.08;101653.47;5041976;28;20033;-78
2021/12/13 11:17:44;;;;;;;25.25;16.00;;;;;;;10.37;49.30;101653.53;5054144;28;20037;-78
2021/12/13 11:20:36;;;;;;;33.38;15.10;;;;;;;10.76;48.48;101645.97;5054045;28;20036;-79
2021/12/13 11:23:21;;;;;;;32.63;17.45;;;;;;;10.60;49.09;101645.38;5057402;28;20036;-78
2021/12/13 11:26:11;;;;;;;29.77;16.75;;;;;;;10.58;48.60;101641.31;5048542;28;20041;-79
2021/12/13 11:28:56;;;;;;;28.13;16.92;;;;;;;10.20;49.48;101640.44;5056823;28;20421;-79
2021/12/13 11:31:47;;;;;;;28.73;16.23;;;;;;;10.04;50.28;101633.53;5074633;28;20490;-79
2021/12/13 11:35:04;;;;;;;39.55;18.40;;;;;;;10.47;50.41;101634.38;5062303;28;20039;-78
2021/12/13 11:38:01;;;;;;;21.38;13.18;;;;;;;10.35;48.95;101634.00;5072405;28;20040;-78
2021/12/13 11:41:23;;;;;;;29.10;17.80;;;;;;;10.38;48.59;101623.34;5072176;28;20044;-78
2021/12/13 11:44:18;;;;;;;34.80;16.83;;;;;;;11.04;47.58;101619.69;5035904;28;20649;-78
2021/12/13 11:47:34;;;;;;;30.35;17.75;;;;;;;11.39;47.74;101618.31;5081722;28;20044;-77
2021/12/13 11:50:58;;;;;;;34.63;16.90;;;;;;;11.58;47.49;101614.41;5078705;28;20039;-79
2021/12/13 11:54:11;;;;;;;23.60;15.95;;;;;;;11.83;46.03;101606.94;5054903;28;20040;-78
2021/12/13 11:57:23;;;;;;;32.72;17.13;;;;;;;11.31;46.96;101602.66;5061669;28;20041;-78
2021/12/13 12:00:27;;;;;;;28.45;15.50;;;;;;;11.85;45.60;101602.78;5056453;28;20036;-78
2021/12/13 12:03:45;;;;;;;35.38;17.77;;;;;;;11.57;46.48;101601.13;5073925;28;20044;-78
2021/12/13 12:07:16;;;;;;;26.33;15.80;;;;;;;11.51;46.23;101591.41;5088907;28;20036;-78
2021/12/13 12:10:27;;;;;;;20.55;14.25;;;;;;;11.19;44.93;101596.84;5031872;28;20037;-80
2021/12/13 12:13:41;;;;;;;22.45;14.32;;;;;;;11.08;44.67;101588.84;5056831;28;20040;-78
2021/12/13 12:16:26;;;;;;;23.33;15.02;;;;;;;10.99;45.62;101587.94;5051276;28;20032;-78
2021/12/13 12:19:19;;;;;;;18.58;12.00;;;;;;;11.23;47.19;101595.97;5076495;28;20044;-78
2021/12/13 12:22:03;;;;;;;26.27;15.30;;;;;;;11.55;45.89;101582.34;5071965;28;20060;-78
2021/12/13 12:24:50;;;;;;;21.02;12.55;;;;;;;11.69;44.07;101582.34;5067695;28;20040;-78
2021/12/13 12:27:36;;;;;;;30.40;14.40;;;;;;;12.12;42.64;101588.34;5081035;28;20036;-78
2021/12/13 12:30:26;;;;;;;17.88;12.05;;;;;;;12.33;41.69;101584.09;5083318;28;20047;-78
2021/12/13 12:33:19;;;;;;;18.50;11.20;;;;;;;12.32;43.16;101571.56;5105054;22;20048;-79
2021/12/13 12:36:19;;;;;;;24.05;13.45;;;;;;;12.36;42.39;101577.22;5113635;28;20035;-77
2021/12/13 12:39:04;;;;;;;14.43;9.27;;;;;;;12.36;42.60;101571.75;5099118;28;20044;-77
2021/12/13 12:42:17;;;;;;;19.48;11.30;;;;;;;12.17;43.56;101562.91;5103282;27;20052;-78
2021/12/13 12:45:04;;;;;;;29.83;11.70;;;;;;;12.38;42.43;101564.91;5083808;28;20036;-78
2021/12/13 12:47:49;;;;;;;19.40;11.95;;;;;;;12.11;41.95;101564.13;5080749;28;20037;-78
2021/12/13 12:50:50;;;;;;;19.38;9.10;;;;;;;11.98;42.55;101563.84;5087799;28;20044;-78
2021/12/13 12:53:37;;;;;;;17.02;11.25;;;;;;;12.03;43.25;101564.84;5067351;28;20040;-79
2021/12/13 12:56:36;;;;;;;15.65;10.40;;;;;;;12.28;41.69;101567.03;5070902;28;20496;-79
2021/12/13 12:59:28;;;;;;;17.70;10.13;;;;;;;17.23;32.80;101568.91;5074589;28;20044;-79
2021/12/13 13:02:15;;;;;;;16.08;10.43;;;;;;;22.40;24.10;101577.19;5082550;28;20032;-79
2021/12/13 13:05:04;;;;;;;17.13;11.55;;;;;;;24.14;21.22;101582.66;5082241;28;20048;-77
2021/12/13 13:07:54;;;;;;;16.83;9.57;;;;;;;25.84;19.54;101588.13;5081583;28;20041;-77
2021/12/13 13:13:39;;;;;;;15.23;10.13;;;;;;;28.08;16.37;101586.75;5087411;28;20225;-79
2021/12/13 13:16:34;;;;;;;14.93;9.65;;;;;;;26.41;17.50;101574.13;5088364;28;20412;-79
2021/12/13 13:19:36;;;;;;;13.38;9.10;;;;;;;26.14;17.55;101580.13;5086659;28;20500;-79
2021/12/13 13:22:31;;;;;;;14.30;9.55;;;;;;;25.65;17.56;101569.78;5073101;28;20051;-79
2021/12/13 13:25:21;;;;;;;11.90;8.27;;;;;;;27.80;15.83;101583.38;5075499;28;20044;-80
2021/12/13 13:28:18;;;;;;;13.65;9.45;;;;;;;28.53;15.55;101569.91;5074728;28;20040;-79